createdAt,value
2023-02-08T00:01:11.010Z,100298.94
2023-02-08T00:03:38.829Z,100294.63
2023-02-08T00:06:07.239Z,100300.72
2023-02-08T00:08:35.609Z,100292.94
2023-02-08T00:11:03.364Z,100285.28
2023-02-08T00:13:31.892Z,100275.28
2023-02-08T00:15:59.196Z,100270.47
2023-02-08T00:18:26.670Z,100269.75
2023-02-08T00:20:55.508Z,100263.47
2023-02-08T00:23:23.134Z,100270.09
2023-02-08T00:25:50.479Z,100266.41
2023-02-08T00:28:20.283Z,100258.97
2023-02-08T00:30:49.383Z,100255.97
2023-02-08T00:33:16.664Z,100253.44
2023-02-08T00:35:43.941Z,100246.81
2023-02-08T00:38:11.257Z,100254.38
2023-02-08T00:40:38.963Z,100256.88
2023-02-08T00:43:06.949Z,100254.44
2023-02-08T00:45:35.411Z,100262.25
2023-02-08T00:48:02.656Z,100264.75
2023-02-08T00:50:29.954Z,100263.47
2023-02-08T00:52:58.397Z,100263.31
2023-02-08T00:55:25.936Z,100260.25
2023-02-08T00:57:53.188Z,100259.00
2023-02-08T01:00:20.538Z,100264.69
2023-02-08T01:02:47.876Z,100261.47
2023-02-08T01:05:15.146Z,100265.91
2023-02-08T01:07:42.616Z,100272.13
2023-02-08T01:10:12.421Z,100270.41
2023-02-08T01:12:41.255Z,100265.91
2023-02-08T01:15:09.003Z,100267.31
2023-02-08T01:17:36.425Z,100264.53
2023-02-08T01:20:03.928Z,100269.59
2023-02-08T01:22:31.180Z,100268.13
2023-02-08T01:24:58.578Z,100265.53
2023-02-08T01:27:25.870Z,100261.97
2023-02-08T01:29:53.408Z,100262.16
2023-02-08T01:32:20.720Z,100256.09
2023-02-08T01:34:48.037Z,100254.81
2023-02-08T01:37:15.284Z,100258.81
2023-02-08T01:39:42.569Z,100256.50
2023-02-08T01:42:14.755Z,100249.88
2023-02-08T01:45:15.101Z,100253.44
2023-02-08T01:47:48.679Z,100248.72
2023-02-08T01:50:16.913Z,100249.72
2023-02-08T01:52:45.617Z,100247.63
2023-02-08T01:55:18.442Z,100237.06
2023-02-08T01:57:46.888Z,100234.41
2023-02-08T02:00:22.191Z,100236.91
2023-02-08T02:02:53.468Z,100237.19
2023-02-08T02:05:29.943Z,100232.41
2023-02-08T02:07:59.840Z,100229.34
2023-02-08T02:10:32.334Z,100229.31
2023-02-08T02:13:21.880Z,100214.66
2023-02-08T02:15:50.156Z,100216.31
2023-02-08T02:18:32.137Z,100212.84
2023-02-08T02:21:02.269Z,100210.34
2023-02-08T02:23:44.549Z,100204.03
2023-02-08T02:27:04.814Z,100203.31
2023-02-08T02:29:32.000Z,100201.75
2023-02-08T02:32:30.224Z,100197.16
2023-02-08T02:35:27.241Z,100190.81
2023-02-08T02:38:51.954Z,100199.31
2023-02-08T02:41:43.596Z,100202.25
2023-02-08T02:44:23.444Z,100202.59
2023-02-08T02:47:01.297Z,100204.13
2023-02-08T02:49:39.864Z,100207.50
2023-02-08T02:52:08.811Z,100196.03
2023-02-08T02:54:45.721Z,100204.94
2023-02-08T02:57:18.984Z,100204.50
2023-02-08T02:59:46.825Z,100204.59
2023-02-08T03:02:14.476Z,100207.31
2023-02-08T03:04:41.759Z,100203.03
2023-02-08T03:07:40.769Z,100197.25
2023-02-08T03:10:42.003Z,100201.13
2023-02-08T03:13:28.456Z,100204.63
2023-02-08T03:16:26.713Z,100204.78
2023-02-08T03:19:27.760Z,100195.75
2023-02-08T03:22:05.768Z,100209.78
2023-02-08T03:24:44.331Z,100202.41
2023-02-08T03:27:30.337Z,100208.94
2023-02-08T03:30:14.939Z,100197.69
2023-02-08T03:33:10.597Z,100207.81
2023-02-08T03:35:49.146Z,100209.94
2023-02-08T03:38:18.548Z,100202.69
2023-02-08T03:40:49.693Z,100201.59
2023-02-08T03:43:30.201Z,100191.91
2023-02-08T03:46:23.476Z,100200.78
2023-02-08T03:49:07.188Z,100200.66
2023-02-08T03:51:38.987Z,100198.84
2023-02-08T03:54:14.069Z,100202.06
2023-02-08T03:57:05.857Z,100203.03
2023-02-08T03:59:40.015Z,100193.22
2023-02-08T04:02:12.342Z,100195.50
2023-02-08T04:04:42.961Z,100200.44
2023-02-08T04:07:10.497Z,100202.53
2023-02-08T04:09:38.868Z,100205.50
2023-02-08T04:12:06.598Z,100201.56
2023-02-08T04:14:33.858Z,100207.28
2023-02-08T04:17:01.274Z,100201.66
2023-02-08T04:19:28.567Z,100207.13
2023-02-08T04:21:55.869Z,100199.16
2023-02-08T04:24:23.185Z,100195.81
2023-02-08T04:26:50.484Z,100200.56
2023-02-08T04:29:17.742Z,100191.78
2023-02-08T04:31:45.057Z,100194.47
2023-02-08T04:34:12.391Z,100193.00
2023-02-08T04:36:39.746Z,100199.38
2023-02-08T04:39:06.975Z,100190.81
2023-02-08T04:41:34.279Z,100192.66
2023-02-08T04:44:01.542Z,100191.72
2023-02-08T04:46:28.866Z,100189.78
2023-02-08T04:48:58.568Z,100191.91
2023-02-08T04:51:26.071Z,100186.72
2023-02-08T04:53:53.363Z,100179.94
2023-02-08T04:56:20.653Z,100183.47
2023-02-08T04:58:48.469Z,100183.22
2023-02-08T05:01:16.642Z,100179.53
2023-02-08T05:03:44.048Z,100184.78
2023-02-08T05:06:11.343Z,100178.69
2023-02-08T05:08:38.605Z,100175.47
2023-02-08T05:11:06.064Z,100174.25
2023-02-08T05:13:33.399Z,100172.88
2023-02-08T05:16:00.717Z,100173.84
2023-02-08T05:18:28.053Z,100175.03
2023-02-08T05:21:00.731Z,100175.81
2023-02-08T05:23:28.310Z,100182.47
2023-02-08T05:25:55.594Z,100176.50
2023-02-08T05:28:23.164Z,100171.50
2023-02-08T05:30:50.589Z,100179.50
2023-02-08T05:33:18.742Z,100179.34
2023-02-08T05:35:46.249Z,100178.88
2023-02-08T05:38:13.573Z,100180.19
2023-02-08T05:40:41.307Z,100186.53
2023-02-08T05:43:08.839Z,100176.97
2023-02-08T05:45:36.091Z,100182.16
2023-02-08T05:48:03.365Z,100177.94
2023-02-08T05:50:31.508Z,100182.16
2023-02-08T05:52:59.098Z,100187.38
2023-02-08T05:55:28.165Z,100180.75
2023-02-08T05:57:55.498Z,100174.31
2023-02-08T06:00:22.816Z,100187.19
2023-02-08T06:02:50.103Z,100189.59
2023-02-08T06:05:17.541Z,100189.38
2023-02-08T06:07:44.822Z,100189.38
2023-02-08T06:10:12.102Z,100193.09
2023-02-08T06:12:39.391Z,100191.75
2023-02-08T06:15:06.866Z,100188.88
2023-02-08T06:17:34.120Z,100184.13
2023-02-08T06:20:01.695Z,100188.31
2023-02-08T06:22:29.077Z,100188.06
2023-02-08T06:24:56.417Z,100195.75
2023-02-08T06:27:23.681Z,100194.59
2023-02-08T06:29:50.969Z,100197.78
2023-02-08T06:32:18.303Z,100201.16
2023-02-08T06:34:45.609Z,100192.66
2023-02-08T06:37:12.881Z,100196.75
2023-02-08T06:39:40.148Z,100188.16
2023-02-08T06:42:09.605Z,100193.66
2023-02-08T06:44:36.876Z,100191.03
2023-02-08T06:47:04.607Z,100191.34
2023-02-08T06:49:31.886Z,100191.94
2023-02-08T06:51:59.142Z,100188.06
2023-02-08T06:54:26.424Z,100202.47
2023-02-08T06:56:54.547Z,100195.47
2023-02-08T06:59:21.942Z,100199.09
2023-02-08T07:01:49.478Z,100199.41
2023-02-08T07:04:16.828Z,100200.97
2023-02-08T07:06:44.093Z,100211.16
2023-02-08T07:09:11.394Z,100202.59
2023-02-08T07:11:38.648Z,100212.78
2023-02-08T07:14:06.069Z,100205.38
2023-02-08T07:16:33.363Z,100220.94
2023-02-08T07:19:00.649Z,100220.59
2023-02-08T07:21:27.922Z,100216.91
2023-02-08T07:23:55.383Z,100220.59
2023-02-08T07:26:22.609Z,100215.41
2023-02-08T07:28:49.966Z,100220.50
2023-02-08T07:31:17.805Z,100210.53
2023-02-08T07:33:45.380Z,100217.81
2023-02-08T07:36:13.161Z,100219.72
2023-02-08T07:38:40.507Z,100220.00
2023-02-08T07:41:13.411Z,100212.88
2023-02-08T07:43:42.118Z,100212.31
2023-02-08T07:46:21.401Z,100210.69
2023-02-08T07:48:52.659Z,100198.66
2023-02-08T07:51:20.018Z,100207.78
2023-02-08T07:53:47.457Z,100205.66
2023-02-08T07:56:14.694Z,100201.94
2023-02-08T07:58:41.928Z,100197.34
2023-02-08T08:01:21.578Z,100203.59
2023-02-08T08:03:53.082Z,100201.00
2023-02-08T08:06:22.265Z,100192.66
2023-02-08T08:08:49.874Z,100196.31
2023-02-08T08:11:18.621Z,100197.25
2023-02-08T08:13:45.916Z,100200.75
2023-02-08T08:16:13.475Z,100198.13
2023-02-08T08:18:40.939Z,100193.81
2023-02-08T08:21:08.390Z,100200.16
2023-02-08T08:23:36.324Z,100188.03
2023-02-08T08:26:13.796Z,100191.03
2023-02-08T08:28:42.120Z,100193.06
2023-02-08T08:31:15.246Z,100194.16
2023-02-08T08:33:42.656Z,100188.88
2023-02-08T08:36:10.214Z,100195.47
2023-02-08T08:38:39.264Z,100192.56
2023-02-08T08:41:15.029Z,100199.59
2023-02-08T08:43:42.347Z,100187.75
2023-02-08T08:46:10.771Z,100189.28
2023-02-08T08:48:38.840Z,100188.78
2023-02-08T08:51:07.010Z,100192.72
2023-02-08T08:53:35.050Z,100192.47
2023-02-08T08:56:02.683Z,100191.34
2023-02-08T08:58:30.028Z,100189.94
2023-02-08T09:01:00.756Z,100189.44
2023-02-08T09:03:28.978Z,100176.47
2023-02-08T09:05:56.579Z,100177.09
2023-02-08T09:08:23.892Z,100181.38
2023-02-08T09:10:51.277Z,100174.50
2023-02-08T09:13:21.721Z,100169.97
2023-02-08T09:15:49.441Z,100172.84
2023-02-08T09:18:16.900Z,100171.34
2023-02-08T09:20:44.812Z,100165.94
2023-02-08T09:23:12.728Z,100169.91
2023-02-08T09:25:40.009Z,100156.88
2023-02-08T09:28:07.412Z,100159.44
2023-02-08T09:30:34.680Z,100171.56
2023-02-08T09:33:01.928Z,100167.44
2023-02-08T09:35:29.567Z,100171.66
2023-02-08T09:37:58.220Z,100168.03
2023-02-08T09:40:33.376Z,100166.28
2023-02-08T09:43:18.784Z,100158.88
2023-02-08T09:46:01.848Z,100159.00
2023-02-08T09:48:35.109Z,100168.81
2023-02-08T09:51:21.800Z,100167.16
2023-02-08T09:53:57.081Z,100158.50
2023-02-08T09:56:31.057Z,100157.88
2023-02-08T09:58:59.578Z,100161.38
2023-02-08T10:01:30.040Z,100159.41
2023-02-08T10:04:09.292Z,100155.88
2023-02-08T10:06:38.036Z,100154.25
2023-02-08T10:09:10.041Z,100155.78
2023-02-08T10:12:17.514Z,100147.56
2023-02-08T10:15:06.079Z,100147.13
2023-02-08T10:17:49.330Z,100147.03
2023-02-08T10:20:56.316Z,100146.19
2023-02-08T10:24:01.688Z,100151.72
2023-02-08T10:26:40.876Z,100149.41
2023-02-08T10:29:59.276Z,100143.53
2023-02-08T10:33:03.118Z,100138.00
2023-02-08T10:35:37.037Z,100136.88
2023-02-08T10:38:23.382Z,100129.47
2023-02-08T10:40:55.471Z,100134.72
2023-02-08T10:43:37.815Z,100126.38
2023-02-08T10:46:22.883Z,100130.38
2023-02-08T10:49:08.867Z,100115.16
2023-02-08T10:51:36.287Z,100117.59
2023-02-08T10:54:03.699Z,100114.63
2023-02-08T10:56:30.895Z,100123.53
2023-02-08T10:59:06.080Z,100117.59
2023-02-08T11:01:33.383Z,100114.09
2023-02-08T11:04:12.461Z,100106.88
2023-02-08T11:06:41.326Z,100101.16
2023-02-08T11:09:23.640Z,100101.06
2023-02-08T11:11:52.612Z,100101.66
2023-02-08T11:14:46.369Z,100095.19
2023-02-08T11:17:40.572Z,100078.34
2023-02-08T11:20:19.693Z,100079.50
2023-02-08T11:22:47.098Z,100078.75
2023-02-08T11:25:35.710Z,100064.53
2023-02-08T11:28:04.706Z,100065.38
2023-02-08T11:30:33.415Z,100057.47
2023-02-08T11:33:20.196Z,100056.75
2023-02-08T11:36:13.684Z,100056.84
2023-02-08T11:38:43.119Z,100053.28
2023-02-08T11:41:19.429Z,100044.16
2023-02-08T11:44:04.526Z,100037.56
2023-02-08T11:46:35.104Z,100047.69
2023-02-08T11:49:03.577Z,100035.84
2023-02-08T11:51:36.824Z,100024.41
2023-02-08T11:54:05.631Z,100015.34
2023-02-08T11:56:34.680Z,100007.56
2023-02-08T11:59:03.692Z,100003.78
2023-02-08T12:01:39.734Z,99995.75
2023-02-08T12:04:11.441Z,99994.00
2023-02-08T12:07:00.261Z,99990.47
2023-02-08T12:10:08.018Z,99985.19
2023-02-08T12:12:53.394Z,99983.72
2023-02-08T12:15:31.707Z,99985.72
2023-02-08T12:18:56.423Z,99974.53
2023-02-08T12:21:26.835Z,99968.25
2023-02-08T12:24:14.466Z,99969.56
2023-02-08T12:27:05.049Z,99974.13
2023-02-08T12:29:47.992Z,99966.28
2023-02-08T12:33:09.986Z,99961.94
2023-02-08T12:36:17.443Z,99963.94
2023-02-08T12:39:32.850Z,99954.06
2023-02-08T12:42:09.796Z,99938.38
2023-02-08T12:45:02.642Z,99936.16
2023-02-08T12:48:03.746Z,99929.34
2023-02-08T12:50:39.792Z,99933.66
2023-02-08T12:53:33.761Z,99914.19
2023-02-08T12:56:22.313Z,99903.16
2023-02-08T12:59:08.286Z,99910.31
2023-02-08T13:01:45.265Z,99906.25
2023-02-08T13:04:26.667Z,99901.25
2023-02-08T13:07:07.187Z,99883.41
2023-02-08T13:09:35.890Z,99890.91
2023-02-08T13:12:10.788Z,99900.00
2023-02-08T13:15:03.186Z,99907.75
2023-02-08T13:17:41.816Z,99908.34
2023-02-08T13:20:31.068Z,99883.59
2023-02-08T13:23:04.087Z,99885.84
2023-02-08T13:25:36.997Z,99895.97
2023-02-08T13:28:09.008Z,99884.66
2023-02-08T13:30:39.898Z,99881.97
2023-02-08T13:33:26.382Z,99883.28
2023-02-08T13:35:54.513Z,99882.84
2023-02-08T13:38:31.121Z,99880.69
2023-02-08T13:41:22.182Z,99867.41
2023-02-08T13:43:51.490Z,99881.22
2023-02-08T13:46:19.948Z,99890.91
2023-02-08T13:48:48.417Z,99886.84
2023-02-08T13:51:52.779Z,99890.63
2023-02-08T13:54:20.088Z,99882.91
2023-02-08T13:56:51.473Z,99870.31
2023-02-08T13:59:35.329Z,99892.22
2023-02-08T14:02:22.262Z,99889.47
2023-02-08T14:04:53.064Z,99891.25
2023-02-08T14:07:43.735Z,99883.22
2023-02-08T14:10:31.827Z,99880.50
2023-02-08T14:13:09.063Z,99896.84
2023-02-08T14:15:40.504Z,99893.53
2023-02-08T14:18:37.330Z,99903.38
2023-02-08T14:21:07.783Z,99908.44
2023-02-08T14:23:40.155Z,99911.28
2023-02-08T14:26:20.666Z,99904.13
2023-02-08T14:28:54.657Z,99912.56
2023-02-08T14:31:23.851Z,99896.91
2023-02-08T14:33:55.377Z,99908.63
2023-02-08T14:36:33.403Z,99904.69
2023-02-08T14:39:24.297Z,99898.84
2023-02-08T14:42:00.143Z,99889.84
2023-02-08T14:44:41.541Z,99891.75
2023-02-08T14:47:23.959Z,99888.34
2023-02-08T14:49:55.257Z,99887.22
2023-02-08T14:52:24.624Z,99884.22
2023-02-08T14:55:03.968Z,99883.25
2023-02-08T14:57:35.576Z,99884.63
2023-02-08T15:00:06.664Z,99901.38
2023-02-08T15:02:35.022Z,99901.06
2023-02-08T15:05:09.964Z,99900.81
2023-02-08T15:07:58.104Z,99912.38
2023-02-08T15:10:26.952Z,99908.38
2023-02-08T15:12:57.866Z,99910.28
2023-02-08T15:15:35.198Z,99909.72
2023-02-08T15:18:03.507Z,99919.66
2023-02-08T15:20:33.225Z,99914.47
2023-02-08T15:23:19.808Z,99911.84
2023-02-08T15:25:56.780Z,99910.91
2023-02-08T15:28:26.703Z,99911.78
2023-02-08T15:31:02.964Z,99901.00
2023-02-08T15:33:30.499Z,99907.75
2023-02-08T15:36:06.650Z,99905.03
2023-02-08T15:38:38.534Z,99904.03
2023-02-08T15:41:16.009Z,99906.91
2023-02-08T15:43:43.829Z,99911.66
2023-02-08T15:46:25.853Z,99908.44
2023-02-08T15:48:54.123Z,99910.28
2023-02-08T15:51:23.170Z,99910.66
2023-02-08T15:53:55.042Z,99904.94
2023-02-08T15:56:37.184Z,99906.22
2023-02-08T15:59:07.904Z,99904.94
2023-02-08T16:01:35.420Z,99908.94
2023-02-08T16:04:12.408Z,99897.31
2023-02-08T16:06:51.873Z,99908.19
2023-02-08T16:09:28.259Z,99903.25
2023-02-08T16:11:58.631Z,99904.84
2023-02-08T16:14:29.804Z,99908.50
2023-02-08T16:16:59.074Z,99905.78
2023-02-08T16:19:32.766Z,99900.59
2023-02-08T16:22:22.666Z,99900.53
2023-02-08T16:24:50.884Z,99903.34
2023-02-08T16:27:27.159Z,99901.13
2023-02-08T16:29:54.726Z,99904.03
2023-02-08T16:32:31.138Z,99901.69
2023-02-08T16:35:00.009Z,99907.28
2023-02-08T16:37:34.232Z,99906.72
2023-02-08T16:40:04.127Z,99909.19
2023-02-08T16:42:36.977Z,99911.31
2023-02-08T16:45:14.720Z,99922.72
2023-02-08T16:47:51.984Z,99915.59
2023-02-08T16:50:24.994Z,99917.94
2023-02-08T16:53:01.169Z,99922.47
2023-02-08T16:55:32.166Z,99918.53
2023-02-08T16:57:59.872Z,99915.34
2023-02-08T17:00:30.298Z,99920.66
2023-02-08T17:02:58.179Z,99924.16
2023-02-08T17:05:32.723Z,99914.63
2023-02-08T17:08:00.329Z,99913.00
2023-02-08T17:10:30.803Z,99918.31
2023-02-08T17:13:17.531Z,99923.81
2023-02-08T17:15:47.789Z,99931.69
2023-02-08T17:18:15.304Z,99938.34
2023-02-08T17:20:43.289Z,99933.09
2023-02-08T17:23:11.518Z,99930.63
2023-02-08T17:25:39.313Z,99928.53
2023-02-08T17:28:11.194Z,99927.63
2023-02-08T17:30:41.737Z,99932.06
2023-02-08T17:33:11.701Z,99931.41
2023-02-08T17:35:39.019Z,99936.59
2023-02-08T17:38:06.611Z,99940.63
2023-02-08T17:40:36.520Z,99944.50
2023-02-08T17:43:04.827Z,99936.47
2023-02-08T17:45:32.538Z,99938.25
2023-02-08T17:48:00.416Z,99944.97
2023-02-08T17:50:27.900Z,99947.03
2023-02-08T17:52:55.693Z,99946.28
2023-02-08T17:55:24.224Z,99954.13
2023-02-08T17:57:51.560Z,99941.97
2023-02-08T18:00:21.888Z,99953.94
2023-02-08T18:02:54.919Z,99947.56
2023-02-08T18:05:27.065Z,99961.66
2023-02-08T18:07:55.920Z,99964.78
2023-02-08T18:10:24.451Z,99961.78
2023-02-08T18:12:51.723Z,99952.34
2023-02-08T18:15:21.381Z,99951.91
2023-02-08T18:17:53.071Z,99954.56
2023-02-08T18:20:24.356Z,99963.09
2023-02-08T18:22:53.253Z,99957.91
2023-02-08T18:25:21.758Z,99962.19
2023-02-08T18:27:50.436Z,99954.25
2023-02-08T18:30:19.589Z,99950.69
2023-02-08T18:32:50.159Z,99957.16
2023-02-08T18:35:18.128Z,99951.31
2023-02-08T18:37:49.264Z,99949.47
2023-02-08T18:40:17.839Z,99948.22
2023-02-08T18:42:45.267Z,99955.59
2023-02-08T18:45:12.539Z,99939.75
2023-02-08T18:47:39.969Z,99953.47
2023-02-08T18:50:08.863Z,99950.72
2023-02-08T18:52:36.158Z,99953.38
2023-02-08T18:55:03.675Z,99952.50
2023-02-08T18:57:31.066Z,99951.31
2023-02-08T18:59:58.369Z,99944.03
2023-02-08T19:02:26.505Z,99945.69
2023-02-08T19:04:54.056Z,99943.63
2023-02-08T19:07:21.322Z,99941.31
2023-02-08T19:09:49.434Z,99946.75
2023-02-08T19:12:16.794Z,99941.44
2023-02-08T19:14:44.210Z,99942.78
2023-02-08T19:17:14.360Z,99939.53
2023-02-08T19:19:42.269Z,99940.41
2023-02-08T19:22:10.598Z,99938.13
2023-02-08T19:24:37.989Z,99942.59
2023-02-08T19:27:05.674Z,99936.50
2023-02-08T19:29:34.499Z,99929.47
2023-02-08T19:32:01.926Z,99938.66
2023-02-08T19:34:31.724Z,99938.09
2023-02-08T19:36:59.137Z,99942.97
2023-02-08T19:39:27.284Z,99939.41
2023-02-08T19:41:58.346Z,99942.19
2023-02-08T19:44:26.889Z,99940.72
2023-02-08T19:46:55.762Z,99934.25
2023-02-08T19:49:25.678Z,99923.06
2023-02-08T19:51:53.134Z,99928.38
2023-02-08T19:54:21.216Z,99923.66
2023-02-08T19:56:50.348Z,99920.97
2023-02-08T19:59:29.267Z,99922.84
2023-02-08T20:01:56.628Z,99922.50
2023-02-08T20:04:24.055Z,99927.16
2023-02-08T20:06:53.285Z,99926.38
2023-02-08T20:09:20.906Z,99930.63
2023-02-08T20:11:56.988Z,99929.63
2023-02-08T20:14:30.973Z,99930.47
2023-02-08T20:16:58.906Z,99913.97
2023-02-08T20:19:26.621Z,99924.66
2023-02-08T20:21:53.922Z,99916.75
2023-02-08T20:24:21.484Z,99918.19
2023-02-08T20:26:49.212Z,99920.94
2023-02-08T20:29:17.696Z,99923.94
2023-02-08T20:31:48.617Z,99928.63
2023-02-08T20:34:18.603Z,99929.03
2023-02-08T20:37:05.378Z,99918.72
2023-02-08T20:39:34.777Z,99915.69
2023-02-08T20:42:02.119Z,99922.66
2023-02-08T20:44:29.525Z,99918.22
2023-02-08T20:47:06.693Z,99909.94
2023-02-08T20:49:34.208Z,99910.53
2023-02-08T20:52:01.552Z,99896.16
2023-02-08T20:54:28.951Z,99909.22
2023-02-08T20:56:56.448Z,99910.06
2023-02-08T20:59:23.937Z,99907.53
2023-02-08T21:01:51.594Z,99914.84
2023-02-08T21:04:20.280Z,99915.38
2023-02-08T21:06:47.687Z,99900.16
2023-02-08T21:09:17.444Z,99904.84
2023-02-08T21:11:45.655Z,99910.00
2023-02-08T21:14:18.785Z,99907.28
2023-02-08T21:16:48.672Z,99909.06
2023-02-08T21:19:17.142Z,99906.28
2023-02-08T21:21:44.495Z,99904.75
2023-02-08T21:24:12.074Z,99908.38
2023-02-08T21:26:39.400Z,99917.41
2023-02-08T21:29:07.008Z,99915.78
2023-02-08T21:31:37.853Z,99913.09
2023-02-08T21:34:06.009Z,99915.63
2023-02-08T21:36:33.575Z,99914.03
2023-02-08T21:39:01.417Z,99916.31
2023-02-08T21:41:31.838Z,99906.72
2023-02-08T21:44:03.175Z,99908.13
2023-02-08T21:46:32.754Z,99899.53
2023-02-08T21:49:22.469Z,99899.72
2023-02-08T21:52:10.884Z,99910.50
2023-02-08T21:54:45.537Z,99901.94
2023-02-08T21:57:19.289Z,99906.38
2023-02-08T21:59:52.724Z,99903.00
2023-02-08T22:02:27.696Z,99897.72
2023-02-08T22:05:21.788Z,99905.13
2023-02-08T22:07:54.897Z,99903.84
2023-02-08T22:10:26.132Z,99902.25
2023-02-08T22:12:54.972Z,99895.38
2023-02-08T22:15:28.202Z,99899.72
2023-02-08T22:17:58.619Z,99899.72
2023-02-08T22:20:26.351Z,99893.16
2023-02-08T22:22:56.088Z,99901.91
2023-02-08T22:25:23.803Z,99895.50
2023-02-08T22:27:51.302Z,99891.63
2023-02-08T22:30:19.618Z,99895.84
2023-02-08T22:32:48.883Z,99887.59
2023-02-08T22:35:17.792Z,99887.28
2023-02-08T22:37:45.347Z,99893.09
2023-02-08T22:40:13.106Z,99890.88
2023-02-08T22:42:41.251Z,99897.59
2023-02-08T22:45:09.121Z,99899.69
2023-02-08T22:47:36.560Z,99895.41
2023-02-08T22:50:05.885Z,99886.44
2023-02-08T22:52:34.527Z,99882.03
2023-02-08T22:55:03.991Z,99876.31
2023-02-08T22:57:35.983Z,99879.00
2023-02-08T23:00:06.880Z,99871.09
2023-02-08T23:02:34.216Z,99876.31
2023-02-08T23:05:01.538Z,99874.13
2023-02-08T23:07:28.892Z,99872.94
2023-02-08T23:09:56.172Z,99867.16
2023-02-08T23:12:23.435Z,99866.97
2023-02-08T23:14:51.049Z,99866.22
2023-02-08T23:17:18.353Z,99866.88
2023-02-08T23:19:45.607Z,99869.91
2023-02-08T23:22:13.095Z,99865.09
2023-02-08T23:24:40.388Z,99866.69
2023-02-08T23:27:07.654Z,99864.25
2023-02-08T23:29:34.944Z,99868.22
2023-02-08T23:32:02.251Z,99863.19
2023-02-08T23:34:29.579Z,99867.78
2023-02-08T23:36:56.853Z,99862.66
2023-02-08T23:39:24.133Z,99866.88
2023-02-08T23:41:51.528Z,99872.75
2023-02-08T23:44:18.906Z,99865.28
2023-02-08T23:46:46.253Z,99857.09
2023-02-08T23:49:13.600Z,99864.69
2023-02-08T23:51:40.869Z,99862.91
2023-02-08T23:54:08.258Z,99845.53
2023-02-08T23:56:35.625Z,99851.63
2023-02-08T23:59:07.949Z,99843.41
